Time;durP1;ratioP1;P1;durP2;ratioP2;P2;SDS_P1;SDS_P2;PMS_P1;PMS_P2;Temp;Humidity;BMP_temperature;BMP_pressure;BME280_temperature;BME280_humidity;BME280_pressure;Samples;Min_cycle;Max_cycle;Signal;HPM_P1;HPM_P2
2023/03/26 00:01:32;;;;;;;1.08;0.00;;;9.30;92.90;;;;;;4916547;28;20059;-78
2023/03/26 00:04:00;;;;;;;0.30;0.00;;;9.30;92.90;;;;;;4914876;28;20054;-77
2023/03/26 00:06:33;;;;;;;1.33;0.13;;;9.10;93.00;;;;;;4899624;28;20133;-77
2023/03/26 00:09:01;;;;;;;0.57;0.00;;;9.10;93.00;;;;;;4921688;28;20050;-79
2023/03/26 00:11:29;;;;;;;0.70;0.00;;;9.10;93.00;;;;;;4918969;28;20078;-77
2023/03/26 00:13:57;;;;;;;4.20;0.35;;;9.10;93.00;;;;;;4932694;28;20043;-78
2023/03/26 00:16:27;;;;;;;2.53;0.50;;;8.90;93.00;;;;;;4936632;28;20039;-78
2023/03/26 00:18:56;;;;;;;2.58;0.20;;;9.40;93.10;;;;;;4934441;28;20061;-79
2023/03/26 00:21:26;;;;;;;8.50;1.02;;;9.00;93.00;;;;;;4913590;28;20055;-78
2023/03/26 00:23:57;;;;;;;11.60;2.30;;;9.00;93.10;;;;;;4922419;28;22314;-77
2023/03/26 00:26:26;;;;;;;7.55;1.25;;;9.20;93.20;;;;;;4901678;28;20061;-78
2023/03/26 00:28:53;;;;;;;11.27;2.28;;;9.10;93.40;;;;;;4898015;28;20541;-78
2023/03/26 00:31:21;;;;;;;14.77;3.35;;;8.90;93.30;;;;;;4897171;28;20047;-77
2023/03/26 00:33:54;;;;;;;13.07;2.58;;;8.80;93.40;;;;;;4905140;28;20532;-78
2023/03/26 00:36:25;;;;;;;13.02;3.33;;;8.60;93.40;;;;;;4935373;28;20058;-80
2023/03/26 00:38:54;;;;;;;10.73;1.50;;;7.70;93.40;;;;;;4937150;28;20055;-78
2023/03/26 00:41:29;;;;;;;8.68;1.90;;;8.90;93.70;;;;;;4916426;28;20058;-77
2023/03/26 00:43:59;;;;;;;7.43;1.38;;;8.90;93.50;;;;;;4895703;28;20130;-79
2023/03/26 00:46:32;;;;;;;10.80;1.98;;;8.80;93.80;;;;;;4910220;28;22167;-78
2023/03/26 00:49:00;;;;;;;9.40;1.80;;;8.60;94.00;;;;;;4914169;28;20138;-78
2023/03/26 00:51:28;;;;;;;10.30;2.28;;;8.70;94.40;;;;;;4883280;28;20139;-79
2023/03/26 00:53:56;;;;;;;5.93;0.98;;;8.80;94.40;;;;;;4889232;28;20058;-79
2023/03/26 00:56:24;;;;;;;8.93;2.53;;;8.50;94.30;;;;;;4884641;28;20256;-79
2023/03/26 00:58:52;;;;;;;3.53;0.60;;;8.30;94.40;;;;;;4928989;28;20050;-79
2023/03/26 01:01:25;;;;;;;16.73;1.73;;;8.70;94.60;;;;;;4949621;28;20042;-78
2023/03/26 01:03:59;;;;;;;5.63;1.00;;;8.60;94.60;;;;;;4936162;28;20795;-78
2023/03/26 01:06:40;;;;;;;1.52;0.10;;;7.70;94.30;;;;;;4900314;28;22305;-77
2023/03/26 01:09:17;;;;;;;2.88;0.15;;;8.50;94.50;;;;;;4909045;28;20051;-78
2023/03/26 01:11:47;;;;;;;0.98;0.25;;;9.60;94.90;;;;;;4913874;28;20246;-78
2023/03/26 01:14:25;;;;;;;6.30;0.38;;;8.50;94.70;;;;;;4918579;28;20498;-78
2023/03/26 01:16:59;;;;;;;0.52;0.10;;;8.40;94.90;;;;;;4902794;28;20070;-77
2023/03/26 01:20:04;;;;;;;1.50;0.30;;;8.50;94.90;;;;;;4888683;28;22448;-77
2023/03/26 01:22:36;;;;;;;1.08;0.15;;;8.30;95.10;;;;;;4890029;28;20054;-79
2023/03/26 01:25:04;;;;;;;0.15;0.10;;;8.40;95.10;;;;;;4905863;28;20058;-78
2023/03/26 01:27:37;;;;;;;0.40;0.13;;;8.50;95.20;;;;;;4915178;28;20128;-78
2023/03/26 01:31:00;;;;;;;1.25;0.20;;;8.40;95.00;;;;;;4916700;28;22546;-77
2023/03/26 01:33:48;;;;;;;0.40;0.22;;;8.20;94.70;;;;;;4885448;28;20429;-78
2023/03/26 01:36:31;;;;;;;0.17;0.00;;;8.40;94.50;;;;;;4898768;28;20132;-81
2023/03/26 01:39:10;;;;;;;0.10;0.00;;;8.50;94.30;;;;;;4927477;28;20133;-77
2023/03/26 01:41:57;;;;;;;0.65;0.10;;;8.50;94.30;;;;;;4913185;28;20050;-80
2023/03/26 01:44:33;;;;;;;2.50;0.20;;;8.40;94.10;;;;;;4903287;28;20164;-79
2023/03/26 01:47:02;;;;;;;0.77;0.10;;;8.40;94.00;;;;;;4904651;28;20051;-78
2023/03/26 01:49:32;;;;;;;1.52;0.30;;;8.50;94.10;;;;;;4899572;28;20198;-79
2023/03/26 01:52:00;;;;;;;1.73;0.28;;;8.70;93.90;;;;;;4915385;28;20061;-78
2023/03/26 01:54:30;;;;;;;0.77;0.10;;;8.50;93.90;;;;;;4921868;28;20043;-79
2023/03/26 01:57:25;;;;;;;4.78;0.70;;;8.50;93.80;;;;;;4904787;28;20117;-79
2023/03/26 02:00:17;;;;;;;1.67;0.28;;;8.50;94.00;;;;;;4899014;28;20082;-78
2023/03/26 02:03:03;;;;;;;0.60;0.10;;;8.50;93.90;;;;;;4902172;28;20057;-77
2023/03/26 02:05:48;;;;;;;1.80;0.30;;;8.50;93.90;;;;;;4942478;28;20121;-79
2023/03/26 02:08:36;;;;;;;1.67;0.20;;;8.20;94.00;;;;;;4888325;28;20549;-78
2023/03/26 02:11:11;;;;;;;2.45;0.32;;;8.20;94.30;;;;;;4925582;28;20062;-78
2023/03/26 02:13:42;;;;;;;0.52;0.10;;;8.30;94.40;;;;;;4938186;28;20446;-77
2023/03/26 02:16:17;;;;;;;0.52;0.25;;;8.10;94.60;;;;;;4918542;28;20089;-79
2023/03/26 02:18:50;;;;;;;0.50;0.10;;;8.30;94.70;;;;;;4885824;28;20055;-78
2023/03/26 02:21:20;;;;;;;1.05;0.10;;;8.10;94.70;;;;;;4890380;28;20079;-78
2023/03/26 02:24:01;;;;;;;1.75;0.20;;;8.20;94.60;;;;;;4912544;28;20190;-78
2023/03/26 02:26:34;;;;;;;0.77;0.10;;;7.90;94.60;;;;;;4901756;28;20081;-78
2023/03/26 02:29:08;;;;;;;1.33;0.20;;;8.10;94.50;;;;;;4915752;28;20047;-77
2023/03/26 02:31:38;;;;;;;0.50;0.10;;;8.10;94.50;;;;;;4900692;28;20552;-79
2023/03/26 02:34:06;;;;;;;1.58;0.10;;;8.20;94.40;;;;;;4928721;28;20137;-78
2023/03/26 02:36:36;;;;;;;0.30;0.00;;;7.90;94.40;;;;;;4905344;28;20038;-78
2023/03/26 02:39:08;;;;;;;0.20;0.00;;;8.20;94.30;;;;;;4905260;28;20803;-78
2023/03/26 02:41:37;;;;;;;1.65;0.05;;;8.20;94.10;;;;;;4902652;28;20055;-79
2023/03/26 02:44:08;;;;;;;0.10;0.00;;;8.20;94.20;;;;;;4884837;28;20727;-79
2023/03/26 02:46:56;;;;;;;0.20;0.00;;;8.10;94.30;;;;;;4882449;28;22353;-79
2023/03/26 02:49:42;;;;;;;0.20;0.00;;;8.20;94.20;;;;;;4915642;28;20070;-79
2023/03/26 02:52:17;;;;;;;1.00;0.00;;;8.00;94.20;;;;;;4920717;28;20050;-79
2023/03/26 02:54:47;;;;;;;0.65;0.00;;;8.10;94.20;;;;;;4913743;28;20054;-78
2023/03/26 02:57:24;;;;;;;0.47;0.00;;;8.20;94.20;;;;;;4912784;28;20305;-78
2023/03/26 03:00:04;;;;;;;0.68;0.00;;;8.10;94.20;;;;;;4913529;28;20098;-78
2023/03/26 03:02:52;;;;;;;0.82;0.10;;;8.20;94.20;;;;;;4891797;28;20510;-79
2023/03/26 03:05:33;;;;;;;2.58;0.38;;;8.20;94.20;;;;;;4913055;28;20098;-78
2023/03/26 03:08:25;;;;;;;4.70;0.93;;;8.20;94.40;;;;;;4912946;28;20371;-78
2023/03/26 03:11:14;;;;;;;3.85;0.70;;;8.20;94.60;;;;;;4913607;28;20059;-78
2023/03/26 03:13:47;;;;;;;1.83;0.30;;;8.20;94.60;;;;;;4898629;28;20063;-78
2023/03/26 03:16:18;;;;;;;5.18;1.50;;;8.10;94.70;;;;;;4903448;28;20084;-78
2023/03/26 03:18:53;;;;;;;0.75;0.10;;;8.30;94.80;;;;;;4905950;28;20831;-79
2023/03/26 03:21:23;;;;;;;1.05;0.10;;;8.00;94.80;;;;;;4898952;28;20165;-78
2023/03/26 03:23:53;;;;;;;0.70;0.08;;;7.80;94.60;;;;;;4897721;28;20047;-79
2023/03/26 03:26:28;;;;;;;0.65;0.17;;;8.20;94.80;;;;;;4900313;28;20185;-78
2023/03/26 03:29:00;;;;;;;0.20;0.00;;;7.90;94.50;;;;;;4898912;28;20047;-78
2023/03/26 03:31:28;;;;;;;0.70;0.10;;;8.00;94.50;;;;;;4927887;28;20057;-79
2023/03/26 03:34:01;;;;;;;0.60;0.10;;;7.90;94.40;;;;;;4903843;28;20189;-78
2023/03/26 03:36:37;;;;;;;1.88;0.30;;;7.70;94.70;;;;;;4945691;28;20039;-80
2023/03/26 03:39:17;;;;;;;0.85;0.10;;;7.80;95.00;;;;;;4901604;28;20062;-78
2023/03/26 03:41:45;;;;;;;0.85;0.10;;;7.80;95.10;;;;;;4888353;28;22343;-78
2023/03/26 03:44:14;;;;;;;1.40;0.22;;;7.80;95.00;;;;;;4910225;28;20051;-78
2023/03/26 03:46:42;;;;;;;1.92;0.10;;;7.70;95.20;;;;;;4912692;28;20043;-78
2023/03/26 03:49:10;;;;;;;0.40;0.17;;;7.80;95.20;;;;;;4899312;28;20410;-78
2023/03/26 03:51:37;;;;;;;0.35;0.10;;;7.70;95.30;;;;;;4900117;28;20142;-78
2023/03/26 03:54:14;;;;;;;0.38;0.30;;;7.70;95.50;;;;;;4905905;28;20927;-78
2023/03/26 03:56:46;;;;;;;1.52;0.30;;;7.60;95.50;;;;;;4918603;28;20834;-78
2023/03/26 03:59:52;;;;;;;1.92;0.20;;;7.50;95.60;;;;;;4833634;29;20129;-79
2023/03/26 04:02:29;;;;;;;0.95;0.10;;;7.60;95.80;;;;;;4827929;29;20080;-79
2023/03/26 04:05:02;;;;;;;0.98;0.10;;;7.60;95.70;;;;;;4851838;28;20502;-78
2023/03/26 04:07:31;;;;;;;1.00;0.20;;;7.40;95.80;;;;;;4952725;28;20055;-78
2023/03/26 04:10:06;;;;;;;2.70;0.20;;;7.50;96.10;;;;;;4915000;28;20063;-78
2023/03/26 04:12:52;;;;;;;1.40;0.30;;;7.40;96.20;;;;;;4922855;28;20062;-78
2023/03/26 04:15:35;;;;;;;1.07;0.20;;;7.30;96.30;;;;;;4906266;28;20243;-78
2023/03/26 04:18:03;;;;;;;3.30;0.45;;;7.40;96.30;;;;;;4915638;28;20301;-79
2023/03/26 04:20:34;;;;;;;2.58;0.88;;;7.40;96.30;;;;;;4907298;28;20137;-78
2023/03/26 04:23:03;;;;;;;3.92;0.68;;;7.40;96.30;;;;;;4917371;28;20837;-79
2023/03/26 04:25:32;;;;;;;2.40;0.73;;;7.30;96.70;;;;;;4913756;28;20055;-78
2023/03/26 04:28:34;;;;;;;4.70;0.80;;;7.30;96.50;;;;;;4917061;28;20087;-78
2023/03/26 04:31:17;;;;;;;3.45;1.00;;;7.20;96.30;;;;;;4894869;28;20043;-78
2023/03/26 04:33:46;;;;;;;1.83;0.68;;;7.10;96.60;;;;;;4902708;28;20058;-78
2023/03/26 04:36:17;;;;;;;2.35;0.65;;;7.10;96.80;;;;;;4909725;28;20113;-78
2023/03/26 04:38:50;;;;;;;2.72;0.70;;;7.10;96.60;;;;;;4918165;28;20055;-78
2023/03/26 04:41:26;;;;;;;4.15;0.77;;;7.70;96.90;;;;;;4921619;28;20101;-78
2023/03/26 04:44:04;;;;;;;2.50;0.80;;;8.10;96.80;;;;;;4908624;28;20082;-78
2023/03/26 04:46:52;;;;;;;2.40;0.60;;;7.10;97.00;;;;;;4906951;28;20047;-78
2023/03/26 04:49:26;;;;;;;1.50;0.52;;;6.50;97.10;;;;;;4890106;28;20572;-78
2023/03/26 04:51:55;;;;;;;1.98;0.50;;;7.00;97.50;;;;;;4917567;28;20051;-78
2023/03/26 04:54:44;;;;;;;2.08;0.35;;;7.10;97.90;;;;;;4914701;28;20050;-78
2023/03/26 04:57:23;;;;;;;0.93;0.30;;;6.90;98.80;;;;;;4914616;28;20062;-78
2023/03/26 05:00:15;;;;;;;1.65;0.35;;;7.00;99.70;;;;;;4914197;28;20099;-79
2023/03/26 05:02:54;;;;;;;0.90;0.30;;;7.10;99.90;;;;;;4904152;28;20051;-78
2023/03/26 05:05:24;;;;;;;1.95;0.43;;;7.00;99.50;;;;;;4912307;28;20528;-78
2023/03/26 05:07:52;;;;;;;2.33;0.20;;;7.10;99.40;;;;;;4912245;28;22409;-78
2023/03/26 05:10:21;;;;;;;3.65;0.50;;;7.10;99.40;;;;;;4924828;28;20051;-79
2023/03/26 05:12:57;;;;;;;2.13;0.30;;;7.10;99.40;;;;;;4914080;28;20055;-78
2023/03/26 05:15:27;;;;;;;1.27;0.40;;;7.10;99.40;;;;;;4925560;28;20762;-78
2023/03/26 05:18:21;;;;;;;3.17;0.70;;;7.10;99.60;;;;;;4911754;28;20289;-78
2023/03/26 05:20:51;;;;;;;2.17;0.40;;;5.70;99.00;;;;;;4912204;28;20438;-78
2023/03/26 05:23:22;;;;;;;4.47;0.73;;;7.20;99.30;;;;;;4901282;28;20154;-78
2023/03/26 05:25:59;;;;;;;4.72;0.70;;;7.20;99.30;;;;;;4889577;28;20058;-79
2023/03/26 05:28:27;;;;;;;2.33;0.80;;;7.20;99.10;;;;;;4917441;28;20047;-78
2023/03/26 05:31:01;;;;;;;1.45;0.47;;;7.10;99.00;;;;;;4919878;28;22388;-78
2023/03/26 05:33:34;;;;;;;0.65;0.20;;;7.40;98.70;;;;;;4910978;28;20141;-78
2023/03/26 05:36:17;;;;;;;0.50;0.20;;;6.90;99.00;;;;;;4917413;28;20063;-77
2023/03/26 05:38:51;;;;;;;2.33;0.77;;;7.60;98.80;;;;;;4919851;28;20047;-78
2023/03/26 05:41:38;;;;;;;0.98;0.43;;;7.90;98.30;;;;;;4902672;28;20535;-78
2023/03/26 05:44:06;;;;;;;0.55;0.22;;;7.80;98.10;;;;;;4919374;28;20129;-76
2023/03/26 05:46:33;;;;;;;0.55;0.15;;;7.90;98.20;;;;;;4913470;28;20055;-77
2023/03/26 05:49:01;;;;;;;2.05;0.20;;;8.50;98.70;;;;;;4927411;28;20092;-78
2023/03/26 05:51:32;;;;;;;0.60;0.10;;;8.00;98.60;;;;;;4909420;28;20047;-78
2023/03/26 05:54:20;;;;;;;0.63;0.10;;;8.10;98.60;;;;;;4906838;28;20146;-78
2023/03/26 05:57:07;;;;;;;1.17;0.20;;;8.10;98.40;;;;;;4886475;28;20426;-78
2023/03/26 05:59:55;;;;;;;1.05;0.20;;;8.10;98.30;;;;;;4914907;28;20084;-77
2023/03/26 06:02:41;;;;;;;1.35;0.30;;;7.80;97.90;;;;;;4915807;28;20113;-79
2023/03/26 06:05:36;;;;;;;1.02;0.20;;;8.10;97.80;;;;;;4924768;28;20821;-79
2023/03/26 06:08:26;;;;;;;2.45;0.45;;;8.20;97.80;;;;;;4926745;28;20055;-79
2023/03/26 06:11:02;;;;;;;1.33;0.75;;;8.20;97.70;;;;;;4904013;28;20911;-79
2023/03/26 06:13:34;;;;;;;1.90;0.43;;;8.30;97.60;;;;;;4924272;28;20133;-78
2023/03/26 06:16:01;;;;;;;1.48;0.20;;;8.40;97.90;;;;;;4921275;28;20051;-78
2023/03/26 06:18:35;;;;;;;1.60;0.30;;;8.50;98.10;;;;;;4913544;28;20173;-79
2023/03/26 06:21:21;;;;;;;1.92;0.30;;;8.40;97.80;;;;;;4914151;28;20062;-79
2023/03/26 06:24:11;;;;;;;1.02;0.30;;;8.30;97.50;;;;;;4928699;28;20058;-80
2023/03/26 06:27:08;;;;;;;0.93;0.38;;;8.80;96.80;;;;;;4913240;28;20327;-80
2023/03/26 06:30:08;;;;;;;2.30;0.22;;;8.90;96.10;;;;;;4913273;28;20069;-78
2023/03/26 06:33:11;;;;;;;;;;;9.00;96.40;;;;;;4869604;29;20055;-80
2023/03/26 06:35:45;;;;;;;2.00;0.57;;;9.20;95.50;;;;;;4891669;28;20133;-79
2023/03/26 06:38:15;;;;;;;1.00;0.20;;;9.30;94.70;;;;;;4911295;28;20175;-80
2023/03/26 06:40:45;;;;;;;2.20;0.50;;;9.60;94.30;;;;;;4908772;28;22276;-79
2023/03/26 06:43:34;;;;;;;1.65;0.35;;;9.70;94.40;;;;;;4919021;28;20059;-80
2023/03/26 06:46:20;;;;;;;1.70;0.40;;;9.80;94.40;;;;;;4929854;28;20081;-79
2023/03/26 06:49:13;;;;;;;0.60;0.20;;;9.90;94.50;;;;;;4917213;28;20191;-79
2023/03/26 06:51:51;;;;;;;3.30;0.50;;;10.20;94.20;;;;;;4907405;28;20607;-80
2023/03/26 06:54:45;;;;;;;2.40;0.30;;;10.00;93.90;;;;;;4895799;28;20605;-80
2023/03/26 06:57:36;;;;;;;1.60;0.47;;;10.00;93.80;;;;;;4901110;28;20080;-78
2023/03/26 07:00:30;;;;;;;1.83;0.30;;;10.30;94.00;;;;;;4918767;28;20150;-78
2023/03/26 07:03:16;;;;;;;2.03;0.35;;;10.00;94.10;;;;;;4913902;28;20113;-78
2023/03/26 07:06:02;;;;;;;1.23;0.32;;;10.20;94.20;;;;;;4904591;28;22737;-78
2023/03/26 07:08:48;;;;;;;2.20;0.40;;;10.60;93.80;;;;;;4913199;28;20053;-78
2023/03/26 07:11:35;;;;;;;1.08;0.28;;;10.60;92.80;;;;;;4913048;28;20427;-78
2023/03/26 07:14:23;;;;;;;1.70;0.38;;;10.70;92.10;;;;;;4914360;28;23312;-80
2023/03/26 07:17:09;;;;;;;3.47;0.70;;;10.90;92.10;;;;;;4910268;28;20061;-79
2023/03/26 07:20:00;;;;;;;0.98;0.40;;;11.10;91.50;;;;;;4929216;28;20061;-78
2023/03/26 07:22:34;;;;;;;1.13;0.40;;;10.90;90.50;;;;;;4898157;28;20101;-78
2023/03/26 07:25:08;;;;;;;2.08;0.80;;;11.10;90.90;;;;;;4912780;28;20101;-78
2023/03/26 07:28:05;;;;;;;2.55;0.57;;;11.20;91.00;;;;;;4921385;28;20153;-76
2023/03/26 07:31:25;;;;;;;2.38;0.68;;;11.30;91.60;;;;;;4907559;28;21011;-81
2023/03/26 07:34:55;;;;;;;3.25;1.05;;;11.50;92.10;;;;;;4910475;28;20114;-77
2023/03/26 07:38:02;;;;;;;3.65;1.17;;;11.50;93.60;;;;;;4912316;28;20105;-78
2023/03/26 07:41:00;;;;;;;6.63;2.13;;;11.60;94.40;;;;;;4901167;28;20527;-78
2023/03/26 07:44:01;;;;;;;5.45;1.30;;;11.70;94.60;;;;;;4902384;28;20823;-81
2023/03/26 07:46:52;;;;;;;2.67;1.02;;;11.80;94.00;;;;;;4922991;28;20323;-80
2023/03/26 07:49:43;;;;;;;2.47;1.08;;;12.00;93.90;;;;;;4911880;28;20528;-80
2023/03/26 07:52:25;;;;;;;2.15;0.70;;;12.20;92.30;;;;;;4911353;28;20133;-81
2023/03/26 07:54:59;;;;;;;1.83;0.50;;;12.40;91.30;;;;;;4913791;28;20422;-79
2023/03/26 07:57:50;;;;;;;4.63;0.65;;;12.60;90.00;;;;;;4911358;28;20643;-79
2023/03/26 08:01:02;;;;;;;3.13;0.82;;;12.70;89.60;;;;;;4877113;28;20869;-78
2023/03/26 08:03:46;;;;;;;2.50;0.43;;;12.90;89.00;;;;;;4905358;28;20062;-79
2023/03/26 08:06:36;;;;;;;3.03;0.52;;;13.00;87.00;;;;;;4914920;28;20462;-80
2023/03/26 08:09:59;;;;;;;2.10;0.52;;;12.80;85.80;;;;;;4902556;28;20122;-78
2023/03/26 08:13:09;;;;;;;2.67;0.40;;;12.80;84.80;;;;;;4902801;28;20066;-78
2023/03/26 08:15:52;;;;;;;2.13;0.40;;;12.70;85.00;;;;;;4888894;28;20054;-78
2023/03/26 08:18:58;;;;;;;1.23;0.30;;;12.70;84.20;;;;;;4917262;28;20055;-78
2023/03/26 08:21:36;;;;;;;0.80;0.20;;;12.70;83.70;;;;;;4906627;28;20126;-77
2023/03/26 08:24:12;;;;;;;0.90;0.20;;;12.80;80.80;;;;;;4890711;28;20227;-78
2023/03/26 08:27:04;;;;;;;1.52;0.20;;;12.90;79.30;;;;;;4917882;28;20193;-78
2023/03/26 08:29:35;;;;;;;1.52;0.60;;;13.10;79.80;;;;;;4921820;28;20078;-80
2023/03/26 08:32:08;;;;;;;0.85;0.20;;;12.90;77.60;;;;;;4915996;28;20093;-78
2023/03/26 08:34:35;;;;;;;2.53;0.13;;;12.90;78.50;;;;;;4919654;28;20089;-77
2023/03/26 08:37:03;;;;;;;0.70;0.20;;;13.00;78.70;;;;;;4910181;28;20042;-78
2023/03/26 08:39:30;;;;;;;1.58;0.20;;;12.90;77.80;;;;;;4917600;28;20051;-80
2023/03/26 08:42:26;;;;;;;0.63;0.10;;;13.00;79.20;;;;;;4916119;28;20086;-78
2023/03/26 08:45:20;;;;;;;3.58;0.65;;;13.10;77.40;;;;;;4906760;28;20055;-78
2023/03/26 08:48:09;;;;;;;0.90;0.13;;;13.10;76.90;;;;;;4933161;28;20066;-78
2023/03/26 08:50:48;;;;;;;1.25;0.20;;;11.80;75.50;;;;;;4919485;28;20053;-80
2023/03/26 08:53:48;;;;;;;0.30;0.10;;;13.30;76.40;;;;;;4907592;28;20047;-79
2023/03/26 08:56:25;;;;;;;0.73;0.10;;;13.80;74.20;;;;;;4887314;28;20521;-80
2023/03/26 08:59:45;;;;;;;27.65;16.73;;;14.40;74.30;;;;;;4913337;28;20551;-80
2023/03/26 09:02:28;;;;;;;27.98;14.07;;;14.30;72.80;;;;;;4928986;28;20059;-79
2023/03/26 09:05:25;;;;;;;29.83;18.42;;;14.20;72.60;;;;;;4922510;28;20054;-79
2023/03/26 09:08:07;;;;;;;1.83;0.50;;;14.00;74.30;;;;;;4867571;28;20060;-80
2023/03/26 09:11:05;;;;;;;13.13;7.90;;;13.90;75.10;;;;;;4892439;28;20075;-80
2023/03/26 09:14:10;;;;;;;28.40;22.55;;;14.60;77.00;;;;;;4931230;28;20455;-80
2023/03/26 09:17:11;;;;;;;1.63;0.50;;;14.90;72.40;;;;;;4885896;28;20054;-77
2023/03/26 09:20:14;;;;;;;1.77;1.63;;;15.20;73.10;;;;;;4900148;28;20050;-79
2023/03/26 09:23:00;;;;;;;2.92;0.20;;;14.80;71.40;;;;;;4886180;28;20058;-79
2023/03/26 09:25:43;;;;;;;1.92;0.10;;;14.70;71.80;;;;;;4899872;28;22451;-79
2023/03/26 09:28:39;;;;;;;0.80;0.20;;;14.70;70.50;;;;;;4903013;28;22395;-80
2023/03/26 09:31:28;;;;;;;1.00;0.10;;;15.00;72.50;;;;;;4899985;28;20054;-79
2023/03/26 09:34:29;;;;;;;1.95;0.10;;;15.20;71.80;;;;;;4914974;28;20047;-78
2023/03/26 09:37:25;;;;;;;0.95;0.20;;;15.60;67.90;;;;;;4879742;28;20051;-80
2023/03/26 09:40:08;;;;;;;1.13;0.55;;;15.40;68.40;;;;;;4895676;28;20047;-79
2023/03/26 09:43:01;;;;;;;0.70;0.20;;;15.20;70.70;;;;;;4926154;28;20051;-79
2023/03/26 09:45:44;;;;;;;0.77;0.20;;;14.90;71.40;;;;;;4912295;28;20083;-79
2023/03/26 09:48:52;;;;;;;0.70;0.30;;;15.20;73.50;;;;;;4891813;28;22598;-79
2023/03/26 09:51:32;;;;;;;7.80;0.60;;;15.30;72.90;;;;;;4911917;28;20042;-77
2023/03/26 09:54:27;;;;;;;1.80;0.73;;;15.70;72.60;;;;;;4911504;28;20145;-78
2023/03/26 09:57:16;;;;;;;1.40;0.20;;;15.70;72.10;;;;;;4884132;28;20672;-76
2023/03/26 09:59:59;;;;;;;1.25;0.10;;;15.80;71.70;;;;;;4929952;28;20055;-78
2023/03/26 10:02:41;;;;;;;1.33;0.30;;;15.00;69.40;;;;;;4908479;28;20510;-79
2023/03/26 10:05:41;;;;;;;0.52;0.10;;;14.70;67.40;;;;;;4925219;28;20058;-79
2023/03/26 10:08:22;;;;;;;0.70;0.10;;;14.50;68.90;;;;;;4908159;28;20063;-80
2023/03/26 10:11:11;;;;;;;1.70;0.20;;;14.70;70.20;;;;;;4906908;28;20509;-80
2023/03/26 10:13:53;;;;;;;0.75;0.22;;;14.60;68.40;;;;;;4916988;28;20059;-78
2023/03/26 10:16:45;;;;;;;1.52;0.10;;;14.40;68.50;;;;;;4939763;28;20085;-78
2023/03/26 10:19:33;;;;;;;1.83;0.30;;;14.50;70.90;;;;;;4922545;28;20043;-79
2023/03/26 10:22:08;;;;;;;2.13;0.25;;;15.30;76.90;;;;;;4927343;28;20055;-79
2023/03/26 10:24:46;;;;;;;0.77;0.15;;;15.80;74.10;;;;;;4901400;28;20097;-76
2023/03/26 10:27:38;;;;;;;0.63;0.10;;;15.60;70.20;;;;;;4894106;28;20623;-79
2023/03/26 10:30:36;;;;;;;1.42;0.20;;;15.30;70.00;;;;;;4905475;28;20433;-79
2023/03/26 10:33:27;;;;;;;0.57;0.00;;;15.20;69.10;;;;;;4908510;28;20814;-79
2023/03/26 10:36:28;;;;;;;1.23;0.90;;;14.60;69.60;;;;;;4912314;28;20059;-80
2023/03/26 10:39:11;;;;;;;1.05;0.30;;;14.40;73.20;;;;;;4897916;28;20198;-80
2023/03/26 10:42:04;;;;;;;0.70;0.10;;;14.50;73.90;;;;;;4901586;28;20150;-81
2023/03/26 10:45:08;;;;;;;1.25;0.45;;;14.60;72.90;;;;;;4912110;28;20137;-79
2023/03/26 10:47:45;;;;;;;0.90;0.40;;;14.60;72.60;;;;;;4920530;28;20122;-78
2023/03/26 10:50:39;;;;;;;1.13;0.30;;;14.70;73.90;;;;;;4927935;28;20467;-80
2023/03/26 10:53:41;;;;;;;1.17;0.38;;;14.80;73.80;;;;;;4913941;28;22758;-78
2023/03/26 10:56:33;;;;;;;1.30;0.68;;;15.00;74.60;;;;;;4934539;28;20059;-79
2023/03/26 10:59:07;;;;;;;1.17;0.40;;;15.40;73.40;;;;;;4909896;28;20186;-79
2023/03/26 11:02:08;;;;;;;0.85;0.30;;;15.10;72.20;;;;;;4905779;28;20062;-79
2023/03/26 11:04:47;;;;;;;0.40;0.10;;;14.80;72.00;;;;;;4910876;28;20730;-80
2023/03/26 11:07:37;;;;;;;0.60;0.10;;;14.40;71.50;;;;;;4922920;28;20054;-79
2023/03/26 11:10:14;;;;;;;0.75;0.25;;;14.20;73.60;;;;;;4943750;28;20051;-80
2023/03/26 11:12:53;;;;;;;0.47;0.00;;;14.30;74.60;;;;;;4938548;28;20136;-79
2023/03/26 11:15:34;;;;;;;1.55;0.10;;;14.50;74.60;;;;;;4914857;28;20054;-81
2023/03/26 11:18:34;;;;;;;0.68;0.20;;;14.70;74.90;;;;;;4935162;28;20058;-79
2023/03/26 11:21:14;;;;;;;1.15;0.50;;;14.80;73.40;;;;;;4908984;28;20070;-80
2023/03/26 11:24:24;;;;;;;1.02;0.20;;;15.10;74.80;;;;;;4919930;28;20061;-79
2023/03/26 11:27:00;;;;;;;2.83;1.08;;;15.50;75.20;;;;;;4897286;28;20062;-80
2023/03/26 11:29:58;;;;;;;1.67;0.47;;;15.00;72.40;;;;;;4936062;28;20208;-80
2023/03/26 11:32:49;;;;;;;1.45;0.10;;;15.00;73.30;;;;;;4928577;28;20133;-79
2023/03/26 11:35:39;;;;;;;0.55;0.10;;;15.40;72.00;;;;;;4911458;28;20105;-81
2023/03/26 11:38:26;;;;;;;0.82;0.10;;;15.90;71.20;;;;;;4924464;28;20058;-79
2023/03/26 11:40:55;;;;;;;0.50;0.20;;;16.90;69.00;;;;;;4922009;28;20054;-79
2023/03/26 11:43:54;;;;;;;0.32;0.10;;;17.40;62.70;;;;;;4919795;28;20058;-78
2023/03/26 11:46:24;;;;;;;0.60;0.10;;;17.40;60.60;;;;;;4907414;28;20054;-78
2023/03/26 11:48:58;;;;;;;1.70;0.22;;;17.10;60.20;;;;;;4912035;28;20495;-80
2023/03/26 11:51:32;;;;;;;0.55;0.10;;;16.70;60.40;;;;;;4917645;28;20645;-78
2023/03/26 11:54:01;;;;;;;1.08;0.10;;;16.90;62.40;;;;;;4900035;28;20061;-80
2023/03/26 11:56:33;;;;;;;0.30;0.08;;;16.80;59.60;;;;;;4902288;28;20082;-80
2023/03/26 11:59:30;;;;;;;1.27;0.10;;;17.30;59.60;;;;;;4923820;28;20227;-80
2023/03/26 12:02:04;;;;;;;0.50;0.10;;;17.10;59.60;;;;;;4895268;28;20058;-79
2023/03/26 12:04:49;;;;;;;1.85;0.40;;;16.90;61.00;;;;;;4935978;28;20042;-80
2023/03/26 12:07:30;;;;;;;1.13;0.15;;;17.30;62.20;;;;;;4906565;28;20435;-80
2023/03/26 12:10:00;;;;;;;2.05;0.20;;;17.40;61.00;;;;;;4901183;28;20062;-80
2023/03/26 12:12:46;;;;;;;0.52;0.00;;;17.60;60.80;;;;;;4918974;28;20050;-80
2023/03/26 12:15:17;;;;;;;0.43;0.10;;;17.70;59.70;;;;;;4902630;28;20047;-80
2023/03/26 12:17:47;;;;;;;0.30;0.15;;;17.60;59.30;;;;;;4909678;28;22302;-79
2023/03/26 12:20:34;;;;;;;0.30;0.10;;;17.80;57.50;;;;;;4906246;28;20430;-80
2023/03/26 12:23:05;;;;;;;0.88;0.10;;;17.30;58.10;;;;;;4899830;28;22412;-81
2023/03/26 12:25:37;;;;;;;0.35;0.10;;;17.00;58.30;;;;;;4906553;28;20085;-80
2023/03/26 12:28:16;;;;;;;;;;;17.60;59.30;;;;;;4899939;28;20901;-79
2023/03/26 12:30:52;;;;;;;0.32;0.00;;;17.90;57.50;;;;;;4917715;28;19930;-79
2023/03/26 12:33:34;;;;;;;0.75;0.00;;;17.80;57.10;;;;;;4905255;28;20884;-80
2023/03/26 12:36:23;;;;;;;0.40;0.00;;;17.70;55.80;;;;;;4889404;28;20175;-79
2023/03/26 12:38:53;;;;;;;0.30;0.00;;;17.20;56.40;;;;;;4897003;28;20059;-80
2023/03/26 12:41:53;;;;;;;0.10;0.00;;;16.60;56.70;;;;;;4926262;28;20055;-80
2023/03/26 12:44:49;;;;;;;0.20;0.08;;;16.40;57.90;;;;;;4907817;28;22349;-81
2023/03/26 12:47:33;;;;;;;1.00;0.00;;;16.70;59.30;;;;;;4901552;28;20050;-80
2023/03/26 12:50:27;;;;;;;1.40;0.05;;;17.10;58.40;;;;;;4917179;28;20533;-80
2023/03/26 12:53:23;;;;;;;0.50;0.00;;;17.70;56.70;;;;;;4914231;28;20940;-80
2023/03/26 12:56:01;;;;;;;0.30;0.00;;;17.90;54.00;;;;;;4891198;28;20422;-80
2023/03/26 12:58:49;;;;;;;0.28;0.00;;;17.40;54.60;;;;;;4914721;28;20422;-80
2023/03/26 13:01:44;;;;;;;0.90;0.10;;;17.30;55.60;;;;;;4907054;28;20937;-80
2023/03/26 13:04:12;;;;;;;0.20;0.03;;;17.80;55.30;;;;;;4904691;28;20181;-80
2023/03/26 13:06:52;;;;;;;0.40;0.00;;;18.10;55.50;;;;;;4926385;28;20054;-80
2023/03/26 13:09:36;;;;;;;0.10;0.00;;;18.20;54.00;;;;;;4908554;28;20055;-79
2023/03/26 13:12:39;;;;;;;0.57;0.20;;;18.40;54.10;;;;;;4946440;28;20059;-80
2023/03/26 13:15:12;;;;;;;0.20;0.00;;;18.50;54.30;;;;;;4894507;28;20904;-80
2023/03/26 13:18:17;;;;;;;0.20;0.00;;;18.00;54.60;;;;;;4904993;28;20813;-79
2023/03/26 13:20:57;;;;;;;1.35;0.00;;;18.10;54.30;;;;;;4841376;28;20054;-79
2023/03/26 13:23:58;;;;;;;1.00;0.52;;;17.70;54.60;;;;;;4914425;28;20055;-79
2023/03/26 13:26:47;;;;;;;0.13;0.00;;;17.40;54.90;;;;;;4925688;28;20051;-80
2023/03/26 13:29:20;;;;;;;0.30;0.10;;;17.20;55.70;;;;;;4916150;28;20047;-80
2023/03/26 13:31:54;;;;;;;0.10;0.00;;;17.30;56.60;;;;;;4916342;28;20054;-78
2023/03/26 13:34:32;;;;;;;0.50;0.00;;;17.60;56.20;;;;;;4910869;28;20051;-79
2023/03/26 13:37:23;;;;;;;1.42;0.52;;;18.00;56.50;;;;;;4912245;28;20106;-80
2023/03/26 13:40:36;;;;;;;1.07;0.10;;;18.10;54.30;;;;;;4934879;28;20050;-80
2023/03/26 13:43:24;;;;;;;4.78;0.45;;;18.00;54.50;;;;;;4901324;28;22642;-81
2023/03/26 13:46:08;;;;;;;1.55;0.50;;;17.50;54.50;;;;;;4935692;28;20490;-80
2023/03/26 13:48:46;;;;;;;3.90;2.47;;;17.40;55.40;;;;;;4916997;28;20053;-80
2023/03/26 13:51:21;;;;;;;53.17;32.88;;;17.40;56.00;;;;;;4913531;28;20732;-80
2023/03/26 13:53:59;;;;;;;4.13;1.85;;;17.40;55.50;;;;;;4929287;28;20109;-79
2023/03/26 13:56:38;;;;;;;6.55;4.00;;;17.30;54.80;;;;;;4906851;28;20054;-81
2023/03/26 13:59:18;;;;;;;2.23;1.03;;;17.10;54.10;;;;;;4921224;28;20065;-80
2023/03/26 14:02:09;;;;;;;2.55;2.35;;;17.20;54.00;;;;;;4899030;28;21709;-80
2023/03/26 14:04:46;;;;;;;1.48;0.63;;;17.30;54.00;;;;;;4903594;28;21276;-80
2023/03/26 14:07:23;;;;;;;0.50;0.03;;;17.20;53.20;;;;;;4912408;28;20051;-78
2023/03/26 14:09:56;;;;;;;0.28;0.00;;;17.10;53.70;;;;;;4900482;28;20070;-80